Time,TemperatureF,DewpointF,PressureIn,WindDirection,WindDirectionDegrees,WindSpeedMPH,WindSpeedGustMPH,Humidity,HourlyPrecipIn,Conditions,Clouds,dailyrainin,SoftwareType,DateUTC
2013-02-01 00:04:00,28.2,19.4,26.02,ENE,64,0.0,0.0,69,0.00,,,0.00,WUHU216WMR968SP,2013-02-01 08:04:00,
2013-02-01 00:09:00,28.2,19.4,26.02,ENE,64,0.0,0.0,69,0.00,,,0.00,WUHU216WMR968SP,2013-02-01 08:09:00,
2013-02-01 00:14:00,28.2,19.4,26.02,ENE,64,0.0,0.0,69,0.00,,,0.00,WUHU216WMR968SP,2013-02-01 08:14:00,
2013-02-01 00:19:00,28.4,19.6,26.05,ENE,65,0.0,0.0,69,0.00,,,0.00,WUHU216WMR968SP,2013-02-01 08:19:00,
2013-02-01 00:24:00,28.0,18.5,26.05,ENE,68,0.0,0.0,67,0.00,,,0.00,WUHU216WMR968SP,2013-02-01 08:24:00,
2013-02-01 00:29:00,27.9,18.4,26.05,ENE,68,0.0,0.0,67,0.00,,,0.00,WUHU216WMR968SP,2013-02-01 08:29:00,
2013-02-01 00:34:00,27.9,18.4,26.05,ENE,69,0.0,0.0,67,0.00,,,0.00,WUHU216WMR968SP,2013-02-01 08:34:00,
2013-02-01 00:39:00,27.7,18.2,26.05,ENE,72,0.0,0.0,67,0.00,,,0.00,WUHU216WMR968SP,2013-02-01 08:39:00,
2013-02-01 00:44:00,27.7,19.2,26.05,ENE,72,0.0,0.0,70,0.00,,,0.00,WUHU216WMR968SP,2013-02-01 08:44:00,
2013-02-01 00:49:00,27.5,19.1,26.05,ENE,72,0.0,0.0,70,0.00,,,0.00,WUHU216WMR968SP,2013-02-01 08:49:00,
2013-02-01 00:54:00,27.3,18.5,26.05,ENE,72,0.0,0.0,69,0.00,,,0.00,WUHU216WMR968SP,2013-02-01 08:54:00,
2013-02-01 00:59:00,27.5,19.1,26.05,ENE,72,0.0,0.0,70,0.00,,,0.00,WUHU216WMR968SP,2013-02-01 08:59:00,
2013-02-01 01:04:00,27.3,18.9,26.02,ENE,72,0.0,0.0,70,0.00,,,0.00,WUHU216WMR968SP,2013-02-01 09:04:00,
2013-02-01 01:09:00,27.0,18.2,26.02,ENE,72,0.0,0.0,69,0.00,,,0.00,WUHU216WMR968SP,2013-02-01 09:09:00,
2013-02-01 01:14:00,26.8,17.7,26.02,ENE,72,0.0,0.0,68,0.00,,,0.00,WUHU216WMR968SP,2013-02-01 09:14:00,
2013-02-01 01:19:00,26.6,17.5,26.02,ENE,72,0.0,0.0,68,0.00,,,0.00,WUHU216WMR968SP,2013-02-01 09:19:00,
2013-02-01 01:24:00,26.6,17.2,26.02,ENE,72,0.0,0.0,67,0.00,,,0.00,WUHU216WMR968SP,2013-02-01 09:24:00,
2013-02-01 01:29:00,26.4,17.0,26.02,ENE,72,0.0,0.0,67,0.00,,,0.00,WUHU216WMR968SP,2013-02-01 09:29:00,
2013-02-01 01:34:00,26.2,16.8,26.02,ENE,72,0.0,0.0,67,0.00,,,0.00,WUHU216WMR968SP,2013-02-01 09:34:00,
2013-02-01 01:39:00,26.1,16.3,26.02,ENE,72,0.0,0.0,66,0.00,,,0.00,WUHU216WMR968SP,2013-02-01 09:39:00,
2013-02-01 01:44:00,26.1,16.3,26.02,ENE,72,0.0,0.0,66,0.00,,,0.00,WUHU216WMR968SP,2013-02-01 09:44:00,
2013-02-01 01:49:00,26.1,16.3,26.02,ENE,72,0.0,0.0,66,0.00,,,0.00,WUHU216WMR968SP,2013-02-01 09:49:00,
2013-02-01 01:54:00,25.9,15.8,26.02,ENE,72,0.0,0.0,65,0.00,,,0.00,WUHU216WMR968SP,2013-02-01 09:54:00,
2013-02-01 01:59:00,25.7,15.6,26.02,ENE,72,0.0,0.0,65,0.00,,,0.00,WUHU216WMR968SP,2013-02-01 09:59:00,
2013-02-01 02:04:00,25.7,15.6,26.02,ENE,72,0.0,0.0,65,0.00,,,0.00,WUHU216WMR968SP,2013-02-01 10:04:00,
2013-02-01 02:09:00,25.9,15.8,26.02,ENE,72,0.0,0.0,65,0.00,,,0.00,WUHU216WMR968SP,2013-02-01 10:09:00,
2013-02-01 02:14:00,25.9,15.8,26.02,ENE,72,0.0,0.0,65,0.00,,,0.00,WUHU216WMR968SP,2013-02-01 10:14:00,
2013-02-01 02:19:00,25.9,15.8,26.02,ENE,72,0.0,0.0,65,0.00,,,0.00,WUHU216WMR968SP,2013-02-01 10:19:00,
2013-02-01 02:24:00,26.1,16.3,26.02,ENE,72,0.0,0.0,66,0.00,,,0.00,WUHU216WMR968SP,2013-02-01 10:24:00,
2013-02-01 02:29:00,26.2,16.4,26.02,ENE,72,0.0,0.0,66,0.00,,,0.00,WUHU216WMR968SP,2013-02-01 10:29:00,
2013-02-01 02:34:00,26.4,17.3,26.02,ENE,72,0.0,0.0,68,0.00,,,0.00,WUHU216WMR968SP,2013-02-01 10:34:00,
2013-02-01 02:39:00,26.4,17.0,26.02,ENE,72,0.0,0.0,67,0.00,,,0.00,WUHU216WMR968SP,2013-02-01 10:39:00,
2013-02-01 02:44:00,26.2,16.8,26.02,ENE,72,0.0,0.0,67,0.00,,,0.00,WUHU216WMR968SP,2013-02-01 10:44:00,
2013-02-01 02:49:00,26.2,16.8,26.02,ENE,72,0.0,0.0,67,0.00,,,0.00,WUHU216WMR968SP,2013-02-01 10:49:00,
2013-02-01 02:54:00,26.1,16.3,26.02,ENE,72,0.0,0.0,66,0.00,,,0.00,WUHU216WMR968SP,2013-02-01 10:54:00,
2013-02-01 02:59:00,25.9,15.8,26.02,ENE,72,0.0,0.0,65,0.00,,,0.00,WUHU216WMR968SP,2013-02-01 10:59:00,
2013-02-01 03:04:00,25.5,15.1,26.02,ENE,72,0.0,0.0,64,0.00,,,0.00,WUHU216WMR968SP,2013-02-01 11:04:00,
2013-02-01 03:09:00,25.3,14.9,26.02,ENE,71,0.0,0.0,64,0.00,,,0.00,WUHU216WMR968SP,2013-02-01 11:09:00,
2013-02-01 03:14:00,25.2,14.8,26.02,ENE,72,0.0,0.0,64,0.00,,,0.00,WUHU216WMR968SP,2013-02-01 11:14:00,
2013-02-01 03:19:00,25.2,14.8,26.02,ENE,72,0.0,0.0,64,0.00,,,0.00,WUHU216WMR968SP,2013-02-01 11:19:00,
2013-02-01 03:24:00,24.8,14.4,26.02,ENE,72,0.0,0.0,64,0.00,,,0.00,WUHU216WMR968SP,2013-02-01 11:24:00,
2013-02-01 03:29:00,24.6,13.5,26.02,ENE,72,0.0,0.0,62,0.00,,,0.00,WUHU216WMR968SP,2013-02-01 11:29:00,
2013-02-01 03:34:00,24.4,13.7,26.02,ENE,72,0.0,0.0,63,0.00,,,0.00,WUHU216WMR968SP,2013-02-01 11:34:00,
2013-02-01 03:39:00,24.6,15.3,26.02,ENE,72,0.0,0.0,67,0.00,,,0.00,WUHU216WMR968SP,2013-02-01 11:39:00,
2013-02-01 03:44:00,24.6,15.9,26.02,ENE,72,0.0,0.0,69,0.00,,,0.00,WUHU216WMR968SP,2013-02-01 11:44:00,
2013-02-01 03:49:00,24.8,16.1,26.02,ENE,72,0.0,0.0,69,0.00,,,0.00,WUHU216WMR968SP,2013-02-01 11:49:00,
2013-02-01 03:54:00,24.8,16.1,26.02,ENE,72,0.0,0.0,69,0.00,,,0.00,WUHU216WMR968SP,2013-02-01 11:54:00,
2013-02-01 03:59:00,24.8,16.1,26.02,ENE,72,0.0,0.0,69,0.00,,,0.00,WUHU216WMR968SP,2013-02-01 11:59:00,
2013-02-01 04:04:00,24.6,15.6,26.02,ENE,72,0.0,0.0,68,0.00,,,0.00,WUHU216WMR968SP,2013-02-01 12:04:00,
2013-02-01 04:09:00,24.4,15.1,26.02,ENE,72,0.0,0.0,67,0.00,,,0.00,WUHU216WMR968SP,2013-02-01 12:09:00,
2013-02-01 04:14:00,24.4,14.7,26.02,ENE,72,0.0,0.0,66,0.00,,,0.00,WUHU216WMR968SP,2013-02-01 12:14:00,
2013-02-01 04:19:00,24.3,15.3,26.02,ENE,72,0.0,0.0,68,0.00,,,0.00,WUHU216WMR968SP,2013-02-01 12:19:00,
2013-02-01 04:24:00,24.4,15.7,26.02,ENE,72,0.0,0.0,69,0.00,,,0.00,WUHU216WMR968SP,2013-02-01 12:24:00,
2013-02-01 04:29:00,24.4,15.4,26.02,ENE,71,0.0,0.0,68,0.00,,,0.00,WUHU216WMR968SP,2013-02-01 12:29:00,
2013-02-01 04:34:00,24.1,14.8,26.02,ENE,72,0.0,0.0,67,0.00,,,0.00,WUHU216WMR968SP,2013-02-01 12:34:00,
2013-02-01 04:39:00,24.3,15.3,26.02,ENE,72,0.0,0.0,68,0.00,,,0.00,WUHU216WMR968SP,2013-02-01 12:39:00,
2013-02-01 04:44:00,23.9,14.9,26.02,ENE,72,0.0,0.0,68,0.00,,,0.00,WUHU216WMR968SP,2013-02-01 12:44:00,
2013-02-01 04:49:00,23.9,14.6,26.02,ENE,72,0.0,0.0,67,0.00,,,0.00,WUHU216WMR968SP,2013-02-01 12:49:00,
2013-02-01 04:54:00,23.7,14.4,26.02,ENE,72,0.0,0.0,67,0.00,,,0.00,WUHU216WMR968SP,2013-02-01 12:54:00,
2013-02-01 04:59:00,23.7,14.1,26.02,ENE,72,0.0,0.0,66,0.00,,,0.00,WUHU216WMR968SP,2013-02-01 12:59:00,
2013-02-01 05:04:00,23.9,14.6,26.02,ENE,72,0.0,0.0,67,0.00,,,0.00,WUHU216WMR968SP,2013-02-01 13:04:00,
2013-02-01 05:09:00,23.9,14.6,26.02,ENE,72,0.0,0.0,67,0.00,,,0.00,WUHU216WMR968SP,2013-02-01 13:09:00,
2013-02-01 05:14:00,23.9,14.6,26.02,ENE,72,0.0,0.0,67,0.00,,,0.00,WUHU216WMR968SP,2013-02-01 13:14:00,
2013-02-01 05:19:00,23.7,14.1,26.02,ENE,72,0.0,0.0,66,0.00,,,0.00,WUHU216WMR968SP,2013-02-01 13:19:00,
2013-02-01 05:24:00,23.7,14.1,26.02,ENE,72,0.0,0.0,66,0.00,,,0.00,WUHU216WMR968SP,2013-02-01 13:24:00,
2013-02-01 05:29:00,23.4,12.7,26.02,ENE,72,0.0,0.0,63,0.00,,,0.00,WUHU216WMR968SP,2013-02-01 13:29:00,
2013-02-01 05:34:00,23.0,12.0,26.02,ENE,72,0.0,0.0,62,0.00,,,0.00,WUHU216WMR968SP,2013-02-01 13:34:00,
2013-02-01 05:39:00,22.8,11.4,26.02,ENE,72,0.0,0.0,61,0.00,,,0.00,WUHU216WMR968SP,2013-02-01 13:39:00,
2013-02-01 05:44:00,22.8,11.8,26.02,ENE,72,0.0,0.0,62,0.00,,,0.00,WUHU216WMR968SP,2013-02-01 13:44:00,
2013-02-01 05:49:00,22.8,11.8,26.02,ENE,72,0.0,0.0,62,0.00,,,0.00,WUHU216WMR968SP,2013-02-01 13:49:00,
2013-02-01 05:54:00,22.8,11.8,26.02,ENE,72,0.0,0.0,62,0.00,,,0.00,WUHU216WMR968SP,2013-02-01 13:54:00,
2013-02-01 05:59:00,22.8,11.8,26.02,ENE,72,0.0,0.0,62,0.00,,,0.00,WUHU216WMR968SP,2013-02-01 13:59:00,
2013-02-01 06:04:00,22.6,11.2,26.02,ENE,72,0.0,0.0,61,0.00,,,0.00,WUHU216WMR968SP,2013-02-01 14:04:00,
2013-02-01 06:09:00,22.3,10.5,26.02,ENE,72,0.0,0.0,60,0.00,,,0.00,WUHU216WMR968SP,2013-02-01 14:09:00,
2013-02-01 06:14:00,22.3,10.9,26.02,ENE,72,0.0,0.0,61,0.00,,,0.00,WUHU216WMR968SP,2013-02-01 14:14:00,
2013-02-01 06:19:00,22.3,10.9,26.02,ENE,72,0.0,0.0,61,0.00,,,0.00,WUHU216WMR968SP,2013-02-01 14:19:00,
2013-02-01 06:24:00,22.3,10.9,26.02,ENE,72,0.0,0.0,61,0.00,,,0.00,WUHU216WMR968SP,2013-02-01 14:24:00,
2013-02-01 06:29:00,22.1,10.7,26.02,ENE,71,0.0,0.0,61,0.00,,,0.00,WUHU216WMR968SP,2013-02-01 14:29:00,
2013-02-01 06:34:00,21.9,10.2,26.02,ENE,72,0.0,0.0,60,0.00,,,0.00,WUHU216WMR968SP,2013-02-01 14:34:00,
2013-02-01 06:39:00,21.9,10.2,26.02,ENE,71,0.0,0.0,60,0.00,,,0.00,WUHU216WMR968SP,2013-02-01 14:39:00,
2013-02-01 06:44:00,21.7,10.0,26.02,ENE,72,0.0,0.0,60,0.00,,,0.00,WUHU216WMR968SP,2013-02-01 14:44:00,
2013-02-01 06:49:00,21.7,10.0,26.02,ENE,72,0.0,0.0,60,0.00,,,0.00,WUHU216WMR968SP,2013-02-01 14:49:00,
2013-02-01 06:54:00,21.6,10.3,26.02,ENE,72,0.0,0.0,61,0.00,,,0.00,WUHU216WMR968SP,2013-02-01 14:54:00,
2013-02-01 06:59:00,21.7,10.7,26.02,ENE,72,0.0,0.0,62,0.00,,,0.00,WUHU216WMR968SP,2013-02-01 14:59:00,
2013-02-01 07:04:00,21.7,10.7,26.02,ENE,72,0.0,0.0,62,0.00,,,0.00,WUHU216WMR968SP,2013-02-01 15:04:00,
2013-02-01 07:09:00,21.7,10.7,26.02,ENE,72,0.0,0.0,62,0.00,,,0.00,WUHU216WMR968SP,2013-02-01 15:09:00,
2013-02-01 07:14:00,21.7,10.7,26.02,ENE,72,0.0,0.0,62,0.00,,,0.00,WUHU216WMR968SP,2013-02-01 15:14:00,
2013-02-01 07:19:00,21.9,10.9,26.02,ENE,72,0.0,0.0,62,0.00,,,0.00,WUHU216WMR968SP,2013-02-01 15:19:00,
2013-02-01 07:24:00,21.9,12.3,26.02,ENE,72,0.0,0.0,66,0.00,,,0.00,WUHU216WMR968SP,2013-02-01 15:24:00,
2013-02-01 07:29:00,21.9,13.3,26.02,ENE,72,0.0,0.0,69,0.00,,,0.00,WUHU216WMR968SP,2013-02-01 15:29:00,
2013-02-01 07:34:00,21.9,12.7,26.02,ENE,72,0.0,0.0,67,0.00,,,0.00,WUHU216WMR968SP,2013-02-01 15:34:00,
2013-02-01 07:39:00,22.1,13.2,26.02,ENE,72,0.0,0.0,68,0.00,,,0.00,WUHU216WMR968SP,2013-02-01 15:39:00,
2013-02-01 07:44:00,22.1,13.2,26.02,ENE,72,0.0,0.0,68,0.00,,,0.00,WUHU216WMR968SP,2013-02-01 15:44:00,
2013-02-01 07:49:00,22.3,13.4,26.02,ENE,73,0.0,0.0,68,0.00,,,0.00,WUHU216WMR968SP,2013-02-01 15:49:00,
2013-02-01 07:54:00,22.5,13.2,26.02,ENE,73,0.0,0.0,67,0.00,,,0.00,WUHU216WMR968SP,2013-02-01 15:54:00,
2013-02-01 07:59:00,23.0,14.1,26.02,ENE,72,0.0,0.0,68,0.00,,,0.00,WUHU216WMR968SP,2013-02-01 15:59:00,
2013-02-01 08:04:00,23.4,14.4,26.02,ENE,73,0.0,0.0,68,0.00,,,0.00,WUHU216WMR968SP,2013-02-01 16:04:00,
2013-02-01 08:09:00,23.7,14.7,26.02,ENE,73,0.0,0.0,68,0.00,,,0.00,WUHU216WMR968SP,2013-02-01 16:09:00,
2013-02-01 08:14:00,24.3,15.3,26.02,ENE,72,0.0,0.0,68,0.00,,,0.00,WUHU216WMR968SP,2013-02-01 16:14:00,
2013-02-01 08:19:00,24.6,15.6,26.05,ENE,72,0.0,0.0,68,0.00,,,0.00,WUHU216WMR968SP,2013-02-01 16:19:00,
2013-02-01 08:24:00,25.0,16.0,26.05,ENE,72,0.0,0.0,68,0.00,,,0.00,WUHU216WMR968SP,2013-02-01 16:24:00,
2013-02-01 08:29:00,25.3,16.9,26.05,ENE,72,0.0,0.0,70,0.00,,,0.00,WUHU216WMR968SP,2013-02-01 16:29:00,
2013-02-01 08:34:00,25.7,17.3,26.02,ENE,72,0.0,0.0,70,0.00,,,0.00,WUHU216WMR968SP,2013-02-01 16:34:00,
2013-02-01 08:39:00,26.2,17.8,26.02,ENE,72,0.0,0.0,70,0.00,,,0.00,WUHU216WMR968SP,2013-02-01 16:39:00,
2013-02-01 08:44:00,26.6,18.2,26.02,ENE,72,0.0,0.0,70,0.00,,,0.00,WUHU216WMR968SP,2013-02-01 16:44:00,
2013-02-01 08:49:00,27.0,18.6,26.05,ENE,72,0.0,0.0,70,0.00,,,0.00,WUHU216WMR968SP,2013-02-01 16:49:00,
2013-02-01 08:54:00,27.5,18.7,26.05,ENE,72,0.0,0.0,69,0.00,,,0.00,WUHU216WMR968SP,2013-02-01 16:54:00,
2013-02-01 08:59:00,27.9,19.1,26.05,East,80,0.0,0.0,69,0.00,,,0.00,WUHU216WMR968SP,2013-02-01 16:59:00,
2013-02-01 09:04:00,28.4,19.6,26.05,East,87,0.0,0.0,69,0.00,,,0.00,WUHU216WMR968SP,2013-02-01 17:04:00,
2013-02-01 09:09:00,28.8,19.6,26.05,East,87,0.0,0.0,68,0.00,,,0.00,WUHU216WMR968SP,2013-02-01 17:09:00,
2013-02-01 09:14:00,29.1,19.9,26.05,SE,124,0.0,0.0,68,0.00,,,0.00,WUHU216WMR968SP,2013-02-01 17:14:00,
2013-02-01 09:19:00,29.7,20.1,26.02,SE,124,0.0,0.0,67,0.00,,,0.00,WUHU216WMR968SP,2013-02-01 17:19:00,
2013-02-01 09:24:00,30.2,19.9,26.02,SE,124,0.0,0.0,65,0.00,,,0.00,WUHU216WMR968SP,2013-02-01 17:24:00,
2013-02-01 09:29:00,30.7,20.0,26.02,ESE,123,0.0,0.0,64,0.00,,,0.00,WUHU216WMR968SP,2013-02-01 17:29:00,
2013-02-01 09:34:00,31.1,18.5,26.05,ENE,59,0.0,0.0,59,0.00,,,0.00,WUHU216WMR968SP,2013-02-01 17:34:00,
2013-02-01 09:39:00,31.5,18.0,26.05,NNE,21,0.0,0.0,57,0.00,,,0.00,WUHU216WMR968SP,2013-02-01 17:39:00,
2013-02-01 09:44:00,31.8,17.9,26.05,NNE,23,0.0,0.0,56,0.00,,,0.00,WUHU216WMR968SP,2013-02-01 17:44:00,
2013-02-01 09:49:00,32.4,18.0,26.05,NNE,15,0.0,0.0,55,0.00,,,0.00,WUHU216WMR968SP,2013-02-01 17:49:00,
2013-02-01 09:54:00,32.7,18.3,26.05,NNE,15,0.0,0.0,55,0.00,,,0.00,WUHU216WMR968SP,2013-02-01 17:54:00,
2013-02-01 09:59:00,33.1,17.3,26.05,SE,125,0.0,2.7,52,0.00,,,0.00,WUHU216WMR968SP,2013-02-01 17:59:00,
2013-02-01 10:04:00,33.6,18.3,26.05,East,101,0.0,2.7,53,0.00,,,0.00,WUHU216WMR968SP,2013-02-01 18:04:00,
2013-02-01 10:09:00,34.0,17.7,26.05,NE,45,0.0,2.7,51,0.00,,,0.00,WUHU216WMR968SP,2013-02-01 18:09:00,
2013-02-01 10:14:00,34.3,18.0,26.05,North,10,0.0,2.7,51,0.00,,,0.00,WUHU216WMR968SP,2013-02-01 18:14:00,
2013-02-01 10:19:00,34.9,18.1,26.05,NE,56,2.2,3.1,50,0.00,,,0.00,WUHU216WMR968SP,2013-02-01 18:19:00,
2013-02-01 10:24:00,35.2,18.4,26.05,East,90,0.0,3.1,50,0.00,,,0.00,WUHU216WMR968SP,2013-02-01 18:24:00,
2013-02-01 10:29:00,35.8,17.9,26.05,NNE,21,0.0,2.7,48,0.00,,,0.00,WUHU216WMR968SP,2013-02-01 18:29:00,
2013-02-01 10:34:00,36.1,17.2,26.05,NE,53,0.0,2.7,46,0.00,,,0.00,WUHU216WMR968SP,2013-02-01 18:34:00,
2013-02-01 10:39:00,36.3,16.8,26.05,NE,53,0.0,0.0,45,0.00,,,0.00,WUHU216WMR968SP,2013-02-01 18:39:00,
2013-02-01 10:45:00,36.7,17.2,26.05,North,9,0.0,2.7,45,0.00,,,0.00,WUHU216WMR968SP,2013-02-01 18:45:00,
2013-02-01 10:50:00,37.0,17.0,26.05,North,5,2.2,3.6,44,0.00,,,0.00,WUHU216WMR968SP,2013-02-01 18:50:00,
2013-02-01 10:55:00,37.4,17.9,26.05,NNW,330,2.2,4.0,45,0.00,,,0.00,WUHU216WMR968SP,2013-02-01 18:55:00,
2013-02-01 11:00:00,37.9,17.8,26.05,NNW,330,0.0,4.0,44,0.00,,,0.00,WUHU216WMR968SP,2013-02-01 19:00:00,
2013-02-01 11:05:00,38.5,17.8,26.05,NNW,330,0.0,2.7,43,0.00,,,0.00,WUHU216WMR968SP,2013-02-01 19:05:00,
2013-02-01 11:10:00,38.8,16.9,26.05,North,1,0.0,2.7,41,0.00,,,0.00,WUHU216WMR968SP,2013-02-01 19:10:00,
2013-02-01 11:15:00,38.8,17.5,26.05,East,98,2.2,3.1,42,0.00,,,0.00,WUHU216WMR968SP,2013-02-01 19:15:00,
2013-02-01 11:20:00,39.4,16.9,26.05,NE,45,0.0,3.1,40,0.00,,,0.00,WUHU216WMR968SP,2013-02-01 19:20:00,
2013-02-01 11:25:00,39.6,17.1,26.05,ESE,108,0.0,3.1,40,0.00,,,0.00,WUHU216WMR968SP,2013-02-01 19:25:00,
2013-02-01 11:30:00,39.7,17.1,26.05,East,86,0.0,3.1,40,0.00,,,0.00,WUHU216WMR968SP,2013-02-01 19:30:00,
2013-02-01 11:35:00,40.1,17.5,26.05,NE,42,0.0,3.1,40,0.00,,,0.00,WUHU216WMR968SP,2013-02-01 19:35:00,
2013-02-01 11:40:00,40.5,17.9,26.05,NE,36,0.0,3.1,40,0.00,,,0.00,WUHU216WMR968SP,2013-02-01 19:40:00,
2013-02-01 11:45:00,41.0,17.7,26.05,NNE,33,2.2,3.1,39,0.00,,,0.00,WUHU216WMR968SP,2013-02-01 19:45:00,
2013-02-01 11:50:00,41.2,17.9,26.05,NNE,28,2.2,3.6,39,0.00,,,0.00,WUHU216WMR968SP,2013-02-01 19:50:00,
2013-02-01 11:55:00,41.7,18.3,26.05,NNE,21,2.2,3.6,39,0.00,,,0.00,WUHU216WMR968SP,2013-02-01 19:55:00,
2013-02-01 12:00:00,42.1,18.7,26.05,North,0,0.0,4.0,39,0.00,,,0.00,WUHU216WMR968SP,2013-02-01 20:00:00,
2013-02-01 12:05:00,42.4,19.0,26.05,North,3,3.1,4.5,39,0.00,,,0.00,WUHU216WMR968SP,2013-02-01 20:05:00,
2013-02-01 12:10:00,42.8,18.7,26.05,North,357,2.2,4.5,38,0.00,,,0.00,WUHU216WMR968SP,2013-02-01 20:10:00,
2013-02-01 12:15:00,43.2,19.1,26.05,SE,143,2.7,4.0,38,0.00,,,0.00,WUHU216WMR968SP,2013-02-01 20:15:00,
2013-02-01 12:20:00,43.5,19.3,26.02,NE,48,0.0,4.0,38,0.00,,,0.00,WUHU216WMR968SP,2013-02-01 20:20:00,
2013-02-01 12:25:00,43.5,18.7,26.02,North,9,0.0,4.0,37,0.00,,,0.00,WUHU216WMR968SP,2013-02-01 20:25:00,
2013-02-01 12:30:00,43.7,19.5,26.02,NNE,29,0.0,3.1,38,0.00,,,0.00,WUHU216WMR968SP,2013-02-01 20:30:00,
2013-02-01 12:35:00,43.9,19.1,26.02,NE,39,0.0,3.1,37,0.00,,,0.00,WUHU216WMR968SP,2013-02-01 20:35:00,
2013-02-01 12:40:00,44.1,19.2,26.02,NNE,23,2.2,3.6,37,0.00,,,0.00,WUHU216WMR968SP,2013-02-01 20:40:00,
2013-02-01 12:45:00,44.4,19.5,26.02,NNE,20,2.7,3.6,37,0.00,,,0.00,WUHU216WMR968SP,2013-02-01 20:45:00,
2013-02-01 12:50:00,44.6,19.0,26.02,NNE,27,2.7,3.1,36,0.00,,,0.00,WUHU216WMR968SP,2013-02-01 20:50:00,
2013-02-01 12:55:00,44.8,18.6,26.02,North,0,0.0,3.1,35,0.00,,,0.00,WUHU216WMR968SP,2013-02-01 20:55:00,
2013-02-01 13:00:00,45.3,19.0,26.02,NE,48,0.0,3.6,35,0.00,,,0.00,WUHU216WMR968SP,2013-02-01 21:00:00,
2013-02-01 13:05:00,45.7,18.7,26.02,NE,42,0.0,3.6,34,0.00,,,0.00,WUHU216WMR968SP,2013-02-01 21:05:00,
2013-02-01 13:10:00,45.9,18.9,26.02,North,357,0.0,3.6,34,0.00,,,0.00,WUHU216WMR968SP,2013-02-01 21:10:00,
2013-02-01 13:15:00,46.6,19.5,26.02,NW,323,2.2,4.0,34,0.00,,,0.00,WUHU216WMR968SP,2013-02-01 21:15:00,
2013-02-01 13:20:00,46.6,18.1,26.02,NNE,21,2.7,4.0,32,0.00,,,0.00,WUHU216WMR968SP,2013-02-01 21:20:00,
2013-02-01 13:25:00,46.2,18.4,26.02,NNE,29,0.0,4.0,33,0.00,,,0.00,WUHU216WMR968SP,2013-02-01 21:25:00,
2013-02-01 13:30:00,46.8,19.0,26.02,NE,52,2.7,4.0,33,0.00,,,0.00,WUHU216WMR968SP,2013-02-01 21:30:00,
2013-02-01 13:35:00,46.9,18.3,25.99,NNE,27,0.0,4.0,32,0.00,,,0.00,WUHU216WMR968SP,2013-02-01 21:35:00,
2013-02-01 13:40:00,47.1,17.8,25.99,NE,47,2.7,3.6,31,0.00,,,0.00,WUHU216WMR968SP,2013-02-01 21:40:00,
2013-02-01 13:45:00,47.3,17.9,25.99,ENE,72,0.0,3.6,31,0.00,,,0.00,WUHU216WMR968SP,2013-02-01 21:45:00,
2013-02-01 13:50:00,47.3,17.9,25.99,NE,49,0.0,3.1,31,0.00,,,0.00,WUHU216WMR968SP,2013-02-01 21:50:00,
2013-02-01 13:55:00,47.3,17.9,25.99,NNE,24,2.7,3.6,31,0.00,,,0.00,WUHU216WMR968SP,2013-02-01 21:55:00,
2013-02-01 14:00:00,47.7,18.3,25.99,North,0,2.7,3.6,31,0.00,,,0.00,WUHU216WMR968SP,2013-02-01 22:00:00,
2013-02-01 14:05:00,47.8,17.6,25.99,NNE,19,0.0,3.6,30,0.00,,,0.00,WUHU216WMR968SP,2013-02-01 22:05:00,
2013-02-01 14:10:00,47.8,17.6,25.99,NE,41,3.1,4.9,30,0.00,,,0.00,WUHU216WMR968SP,2013-02-01 22:10:00,
2013-02-01 14:15:00,47.3,17.2,25.99,ENE,63,2.7,4.9,30,0.00,,,0.00,WUHU216WMR968SP,2013-02-01 22:15:00,
2013-02-01 14:20:00,47.3,17.2,25.99,North,0,0.0,4.0,30,0.00,,,0.00,WUHU216WMR968SP,2013-02-01 22:20:00,
2013-02-01 14:25:00,47.7,17.5,25.99,NNE,23,2.7,4.0,30,0.00,,,0.00,WUHU216WMR968SP,2013-02-01 22:25:00,
2013-02-01 14:30:00,48.0,17.8,25.99,NNE,13,2.7,4.9,30,0.00,,,0.00,WUHU216WMR968SP,2013-02-01 22:30:00,
2013-02-01 14:35:00,48.6,17.5,25.99,NNE,22,3.1,4.9,29,0.00,,,0.00,WUHU216WMR968SP,2013-02-01 22:35:00,
2013-02-01 14:40:00,48.6,17.5,25.99,NE,55,0.0,4.0,29,0.00,,,0.00,WUHU216WMR968SP,2013-02-01 22:40:00,
2013-02-01 14:45:00,48.4,17.4,25.99,NNE,30,2.7,4.0,29,0.00,,,0.00,WUHU216WMR968SP,2013-02-01 22:45:00,
2013-02-01 14:50:00,48.6,17.5,25.99,North,357,3.6,4.0,29,0.00,,,0.00,WUHU216WMR968SP,2013-02-01 22:50:00,
2013-02-01 14:55:00,48.4,17.4,25.99,NNE,22,2.7,4.0,29,0.00,,,0.00,WUHU216WMR968SP,2013-02-01 22:55:00,
2013-02-01 15:00:00,47.7,16.8,25.99,NE,38,3.1,4.0,29,0.00,,,0.00,WUHU216WMR968SP,2013-02-01 23:00:00,
2013-02-01 15:05:00,47.3,16.4,25.99,NE,48,0.0,4.0,29,0.00,,,0.00,WUHU216WMR968SP,2013-02-01 23:05:00,
2013-02-01 15:10:00,47.5,16.6,25.99,NE,35,0.0,4.0,29,0.00,,,0.00,WUHU216WMR968SP,2013-02-01 23:10:00,
2013-02-01 15:15:00,47.7,16.8,25.99,ENE,75,2.2,4.0,29,0.00,,,0.00,WUHU216WMR968SP,2013-02-01 23:15:00,
2013-02-01 15:20:00,47.5,16.6,25.99,ENE,65,2.7,4.0,29,0.00,,,0.00,WUHU216WMR968SP,2013-02-01 23:20:00,
2013-02-01 15:25:00,46.8,16.0,25.99,NE,45,2.2,4.0,29,0.00,,,0.00,WUHU216WMR968SP,2013-02-01 23:25:00,
2013-02-01 15:30:00,46.8,16.0,25.99,NNE,17,2.2,3.6,29,0.00,,,0.00,WUHU216WMR968SP,2013-02-01 23:30:00,
2013-02-01 15:35:00,46.9,16.1,25.99,NNE,21,0.0,3.1,29,0.00,,,0.00,WUHU216WMR968SP,2013-02-01 23:35:00,
2013-02-01 15:40:00,46.8,16.0,25.99,NE,46,2.7,3.6,29,0.00,,,0.00,WUHU216WMR968SP,2013-02-01 23:40:00,
2013-02-01 15:45:00,46.6,15.8,25.99,NNE,24,0.0,3.6,29,0.00,,,0.00,WUHU216WMR968SP,2013-02-01 23:45:00,
2013-02-01 15:50:00,46.4,15.6,25.99,NE,45,2.2,3.1,29,0.00,,,0.00,WUHU216WMR968SP,2013-02-01 23:50:00,
2013-02-01 15:55:00,46.2,16.2,25.99,NE,39,2.2,2.7,30,0.00,,,0.00,WUHU216WMR968SP,2013-02-01 23:55:00,
2013-02-01 16:00:00,46.2,16.2,25.99,NNE,16,2.7,3.6,30,0.00,,,0.00,WUHU216WMR968SP,2013-02-02 00:00:00,
2013-02-01 16:05:00,45.9,16.0,25.99,NE,46,2.7,3.6,30,0.00,,,0.00,WUHU216WMR968SP,2013-02-02 00:05:00,
2013-02-01 16:10:00,45.3,15.4,25.99,NNE,32,2.7,3.6,30,0.00,,,0.00,WUHU216WMR968SP,2013-02-02 00:10:00,
2013-02-01 16:15:00,45.0,15.2,25.99,NE,41,2.7,4.0,30,0.00,,,0.00,WUHU216WMR968SP,2013-02-02 00:15:00,
2013-02-01 16:20:00,44.6,14.8,25.99,NE,48,2.7,4.9,30,0.00,,,0.00,WUHU216WMR968SP,2013-02-02 00:20:00,
2013-02-01 16:25:00,44.4,15.4,25.99,NE,36,0.0,4.9,31,0.00,,,0.00,WUHU216WMR968SP,2013-02-02 00:25:00,
2013-02-01 16:30:00,44.1,15.1,25.99,NE,56,0.0,4.0,31,0.00,,,0.00,WUHU216WMR968SP,2013-02-02 00:30:00,
2013-02-01 16:35:00,43.5,14.6,25.99,NE,53,0.0,4.0,31,0.00,,,0.00,WUHU216WMR968SP,2013-02-02 00:35:00,
2013-02-01 16:40:00,43.2,14.4,25.99,NE,46,2.2,3.6,31,0.00,,,0.00,WUHU216WMR968SP,2013-02-02 00:40:00,
2013-02-01 16:45:00,42.8,14.7,25.99,East,81,2.2,3.6,32,0.00,,,0.00,WUHU216WMR968SP,2013-02-02 00:45:00,
2013-02-01 16:50:00,42.3,14.3,25.99,NNE,33,0.0,3.6,32,0.00,,,0.00,WUHU216WMR968SP,2013-02-02 00:50:00,
2013-02-01 16:55:00,41.9,13.9,25.99,NE,40,0.0,3.1,32,0.00,,,0.00,WUHU216WMR968SP,2013-02-02 00:55:00,
2013-02-01 17:00:00,41.5,14.3,25.99,NE,40,0.0,3.1,33,0.00,,,0.00,WUHU216WMR968SP,2013-02-02 01:00:00,
2013-02-01 17:05:00,41.2,14.0,25.99,NE,40,0.0,2.7,33,0.00,,,0.00,WUHU216WMR968SP,2013-02-02 01:05:00,
2013-02-01 17:10:00,40.6,14.2,25.99,NE,40,2.2,3.1,34,0.00,,,0.00,WUHU216WMR968SP,2013-02-02 01:10:00,
2013-02-01 17:15:00,40.3,14.6,25.99,NE,46,2.2,3.1,35,0.00,,,0.00,WUHU216WMR968SP,2013-02-02 01:15:00,
2013-02-01 17:20:00,39.7,14.7,25.99,NE,46,0.0,3.1,36,0.00,,,0.00,WUHU216WMR968SP,2013-02-02 01:20:00,
2013-02-01 17:25:00,39.4,15.0,25.99,NE,47,2.7,3.6,37,0.00,,,0.00,WUHU216WMR968SP,2013-02-02 01:25:00,
2013-02-01 17:30:00,38.8,15.1,25.99,NE,51,3.1,3.6,38,0.00,,,0.00,WUHU216WMR968SP,2013-02-02 01:30:00,
2013-02-01 17:35:00,38.7,15.6,25.99,NE,49,0.0,3.6,39,0.00,,,0.00,WUHU216WMR968SP,2013-02-02 01:35:00,
2013-02-01 17:40:00,38.3,15.3,25.99,NE,49,0.0,3.1,39,0.00,,,0.00,WUHU216WMR968SP,2013-02-02 01:40:00,
2013-02-01 17:45:00,37.9,14.9,25.99,NE,49,0.0,2.7,39,0.00,,,0.00,WUHU216WMR968SP,2013-02-02 01:45:00,
2013-02-01 17:50:00,37.6,15.2,25.99,NE,49,0.0,2.2,40,0.00,,,0.00,WUHU216WMR968SP,2013-02-02 01:50:00,
2013-02-01 17:55:00,37.4,15.1,25.99,NE,49,0.0,0.0,40,0.00,,,0.00,WUHU216WMR968SP,2013-02-02 01:55:00,
2013-02-01 18:00:00,37.2,14.9,25.99,NE,49,0.0,0.0,40,0.00,,,0.00,WUHU216WMR968SP,2013-02-02 02:00:00,
2013-02-01 18:05:00,36.9,14.6,25.99,NE,49,0.0,2.2,40,0.00,,,0.00,WUHU216WMR968SP,2013-02-02 02:05:00,
2013-02-01 18:10:00,36.9,15.2,25.99,NE,49,0.0,2.2,41,0.00,,,0.00,WUHU216WMR968SP,2013-02-02 02:10:00,
2013-02-01 18:15:00,36.7,15.0,25.99,NE,49,0.0,2.7,41,0.00,,,0.00,WUHU216WMR968SP,2013-02-02 02:15:00,
2013-02-01 18:20:00,36.3,14.6,25.99,NE,49,0.0,2.7,41,0.00,,,0.00,WUHU216WMR968SP,2013-02-02 02:20:00,
2013-02-01 18:25:00,36.1,14.5,25.99,NE,48,0.0,0.0,41,0.00,,,0.00,WUHU216WMR968SP,2013-02-02 02:25:00,
2013-02-01 18:30:00,36.0,14.9,25.99,NE,49,0.0,0.0,42,0.00,,,0.00,WUHU216WMR968SP,2013-02-02 02:30:00,
2013-02-01 18:35:00,35.8,14.8,26.02,NE,49,0.0,0.0,42,0.00,,,0.00,WUHU216WMR968SP,2013-02-02 02:35:00,
2013-02-01 18:40:00,35.8,14.8,26.02,NE,49,0.0,0.0,42,0.00,,,0.00,WUHU216WMR968SP,2013-02-02 02:40:00,
2013-02-01 18:45:00,35.4,14.4,26.02,NE,49,0.0,0.0,42,0.00,,,0.00,WUHU216WMR968SP,2013-02-02 02:45:00,
2013-02-01 18:50:00,35.4,14.9,26.02,NE,48,0.0,0.0,43,0.00,,,0.00,WUHU216WMR968SP,2013-02-02 02:50:00,
2013-02-01 18:55:00,35.4,14.9,26.02,NE,49,0.0,2.2,43,0.00,,,0.00,WUHU216WMR968SP,2013-02-02 02:55:00,
2013-02-01 19:00:00,35.1,14.7,26.02,NE,49,0.0,2.2,43,0.00,,,0.00,WUHU216WMR968SP,2013-02-02 03:00:00,
2013-02-01 19:05:00,34.9,14.5,26.02,NE,49,0.0,0.0,43,0.00,,,0.00,WUHU216WMR968SP,2013-02-02 03:05:00,
2013-02-01 19:10:00,34.9,14.5,26.02,NE,49,0.0,0.0,43,0.00,,,0.00,WUHU216WMR968SP,2013-02-02 03:10:00,
2013-02-01 19:15:00,34.9,14.5,26.02,NE,49,0.0,0.0,43,0.00,,,0.00,WUHU216WMR968SP,2013-02-02 03:15:00,
2013-02-01 19:20:00,34.7,14.3,26.02,NE,49,0.0,0.0,43,0.00,,,0.00,WUHU216WMR968SP,2013-02-02 03:20:00,
2013-02-01 19:25:00,34.5,14.1,26.02,NE,48,0.0,0.0,43,0.00,,,0.00,WUHU216WMR968SP,2013-02-02 03:25:00,
2013-02-01 19:30:00,34.3,13.9,26.02,NE,49,0.0,0.0,43,0.00,,,0.00,WUHU216WMR968SP,2013-02-02 03:30:00,
2013-02-01 19:35:00,33.8,13.5,26.02,NE,49,0.0,0.0,43,0.00,,,0.00,WUHU216WMR968SP,2013-02-02 03:35:00,
2013-02-01 19:40:00,33.4,14.7,26.02,NE,49,0.0,0.0,46,0.00,,,0.00,WUHU216WMR968SP,2013-02-02 03:40:00,
2013-02-01 19:45:00,33.1,14.4,26.02,NE,49,0.0,0.0,46,0.00,,,0.00,WUHU216WMR968SP,2013-02-02 03:45:00,
2013-02-01 19:50:00,32.5,14.4,26.02,NE,49,0.0,0.0,47,0.00,,,0.00,WUHU216WMR968SP,2013-02-02 03:50:00,
2013-02-01 19:55:00,32.2,15.1,26.02,NE,49,0.0,0.0,49,0.00,,,0.00,WUHU216WMR968SP,2013-02-02 03:55:00,
2013-02-01 20:00:00,32.0,15.4,26.02,NE,49,0.0,0.0,50,0.00,,,0.00,WUHU216WMR968SP,2013-02-02 04:00:00,
2013-02-01 20:05:00,31.8,15.7,26.02,NE,49,0.0,0.0,51,0.00,,,0.00,WUHU216WMR968SP,2013-02-02 04:05:00,
2013-02-01 20:10:00,31.6,15.5,26.02,NE,49,0.0,0.0,51,0.00,,,0.00,WUHU216WMR968SP,2013-02-02 04:10:00,
2013-02-01 20:15:00,31.5,15.9,26.02,NE,49,0.0,0.0,52,0.00,,,0.00,WUHU216WMR968SP,2013-02-02 04:15:00,
2013-02-01 20:20:00,31.3,15.2,26.02,NE,48,0.0,0.0,51,0.00,,,0.00,WUHU216WMR968SP,2013-02-02 04:20:00,
2013-02-01 20:25:00,31.1,15.0,26.02,NE,49,0.0,0.0,51,0.00,,,0.00,WUHU216WMR968SP,2013-02-02 04:25:00,
2013-02-01 20:30:00,31.1,15.0,26.02,NE,49,0.0,0.0,51,0.00,,,0.00,WUHU216WMR968SP,2013-02-02 04:30:00,
2013-02-01 20:35:00,30.7,14.6,26.02,NE,49,0.0,0.0,51,0.00,,,0.00,WUHU216WMR968SP,2013-02-02 04:35:00,
2013-02-01 20:40:00,30.7,15.1,26.02,NE,49,0.0,0.0,52,0.00,,,0.00,WUHU216WMR968SP,2013-02-02 04:40:00,
2013-02-01 20:45:00,30.7,15.1,26.02,NE,49,0.0,0.0,52,0.00,,,0.00,WUHU216WMR968SP,2013-02-02 04:45:00,
2013-02-01 20:50:00,30.6,15.5,26.02,NE,49,0.0,0.0,53,0.00,,,0.00,WUHU216WMR968SP,2013-02-02 04:50:00,
2013-02-01 20:55:00,30.6,15.0,26.02,NE,49,0.0,0.0,52,0.00,,,0.00,WUHU216WMR968SP,2013-02-02 04:55:00,
2013-02-01 21:00:00,30.4,14.8,26.02,NE,49,0.0,0.0,52,0.00,,,0.00,WUHU216WMR968SP,2013-02-02 05:00:00,
2013-02-01 21:05:00,30.4,14.8,26.02,NE,49,0.0,0.0,52,0.00,,,0.00,WUHU216WMR968SP,2013-02-02 05:05:00,
2013-02-01 21:10:00,30.4,14.8,26.02,NE,49,0.0,0.0,52,0.00,,,0.00,WUHU216WMR968SP,2013-02-02 05:10:00,
2013-02-01 21:15:00,30.6,15.0,26.02,NE,48,0.0,0.0,52,0.00,,,0.00,WUHU216WMR968SP,2013-02-02 05:15:00,
2013-02-01 21:20:00,30.7,15.1,26.05,NE,49,0.0,0.0,52,0.00,,,0.00,WUHU216WMR968SP,2013-02-02 05:20:00,
2013-02-01 21:25:00,30.9,15.7,26.05,NE,49,0.0,2.7,53,0.00,,,0.00,WUHU216WMR968SP,2013-02-02 05:25:00,
2013-02-01 21:30:00,31.3,15.7,26.05,NE,49,0.0,3.1,52,0.00,,,0.00,WUHU216WMR968SP,2013-02-02 05:30:00,
2013-02-01 21:35:00,31.3,15.7,26.05,NE,49,0.0,3.1,52,0.00,,,0.00,WUHU216WMR968SP,2013-02-02 05:35:00,
2013-02-01 21:40:00,31.3,15.7,26.05,NE,54,0.0,2.7,52,0.00,,,0.00,WUHU216WMR968SP,2013-02-02 05:40:00,
2013-02-01 21:45:00,31.5,15.9,26.05,NE,54,0.0,2.7,52,0.00,,,0.00,WUHU216WMR968SP,2013-02-02 05:45:00,
2013-02-01 21:50:00,31.5,15.9,26.05,NE,54,0.0,0.0,52,0.00,,,0.00,WUHU216WMR968SP,2013-02-02 05:50:00,
2013-02-01 21:55:00,31.3,15.2,26.05,NE,54,0.0,0.0,51,0.00,,,0.00,WUHU216WMR968SP,2013-02-02 05:55:00,
2013-02-01 22:00:00,31.1,15.0,26.05,NE,54,0.0,0.0,51,0.00,,,0.00,WUHU216WMR968SP,2013-02-02 06:00:00,
2013-02-01 22:06:00,30.7,14.6,26.05,NE,54,0.0,0.0,51,0.00,,,0.00,WUHU216WMR968SP,2013-02-02 06:06:00,
2013-02-01 22:11:00,30.4,14.4,26.05,NE,54,0.0,0.0,51,0.00,,,0.00,WUHU216WMR968SP,2013-02-02 06:11:00,
2013-02-01 22:16:00,30.2,14.6,26.05,NE,54,0.0,0.0,52,0.00,,,0.00,WUHU216WMR968SP,2013-02-02 06:16:00,
2013-02-01 22:21:00,30.0,14.5,26.05,NE,54,0.0,0.0,52,0.00,,,0.00,WUHU216WMR968SP,2013-02-02 06:21:00,
2013-02-01 22:26:00,29.8,14.7,26.05,NE,54,0.0,0.0,53,0.00,,,0.00,WUHU216WMR968SP,2013-02-02 06:26:00,
2013-02-01 22:31:00,29.8,14.7,26.05,NE,54,0.0,0.0,53,0.00,,,0.00,WUHU216WMR968SP,2013-02-02 06:31:00,
2013-02-01 22:36:00,29.8,14.3,26.05,NE,54,0.0,0.0,52,0.00,,,0.00,WUHU216WMR968SP,2013-02-02 06:36:00,
2013-02-01 22:41:00,30.0,15.3,26.05,East,87,0.0,2.7,54,0.00,,,0.00,WUHU216WMR968SP,2013-02-02 06:41:00,
2013-02-01 22:46:00,30.4,14.8,26.05,ESE,117,2.2,3.6,52,0.00,,,0.00,WUHU216WMR968SP,2013-02-02 06:46:00,
2013-02-01 22:51:00,30.6,15.0,26.05,SE,124,0.0,3.6,52,0.00,,,0.00,WUHU216WMR968SP,2013-02-02 06:51:00,
2013-02-01 22:56:00,30.4,14.4,26.05,SE,124,0.0,3.1,51,0.00,,,0.00,WUHU216WMR968SP,2013-02-02 06:56:00,
2013-02-01 23:01:00,30.0,14.5,26.05,SE,124,0.0,2.2,52,0.00,,,0.00,WUHU216WMR968SP,2013-02-02 07:01:00,
2013-02-01 23:06:00,29.8,14.7,26.05,SE,124,0.0,2.7,53,0.00,,,0.00,WUHU216WMR968SP,2013-02-02 07:06:00,
2013-02-01 23:11:00,29.7,14.6,26.05,SE,125,0.0,2.7,53,0.00,,,0.00,WUHU216WMR968SP,2013-02-02 07:11:00,
2013-02-01 23:16:00,29.7,14.6,26.05,SE,124,0.0,0.0,53,0.00,,,0.00,WUHU216WMR968SP,2013-02-02 07:16:00,
2013-02-01 23:21:00,29.5,14.4,26.05,SE,124,0.0,0.0,53,0.00,,,0.00,WUHU216WMR968SP,2013-02-02 07:21:00,
2013-02-01 23:26:00,29.5,14.9,26.05,SE,124,0.0,0.0,54,0.00,,,0.00,WUHU216WMR968SP,2013-02-02 07:26:00,
2013-02-01 23:31:00,29.5,14.9,26.05,SE,124,0.0,0.0,54,0.00,,,0.00,WUHU216WMR968SP,2013-02-02 07:31:00,
2013-02-01 23:36:00,29.3,14.7,26.05,SE,124,0.0,0.0,54,0.00,,,0.00,WUHU216WMR968SP,2013-02-02 07:36:00,
2013-02-01 23:41:00,29.3,14.7,26.05,SE,124,0.0,0.0,54,0.00,,,0.00,WUHU216WMR968SP,2013-02-02 07:41:00,
2013-02-01 23:46:00,29.1,14.9,26.05,SE,124,0.0,0.0,55,0.00,,,0.00,WUHU216WMR968SP,2013-02-02 07:46:00,
2013-02-01 23:51:00,29.1,14.9,26.05,SE,124,0.0,0.0,55,0.00,,,0.00,WUHU216WMR968SP,2013-02-02 07:51:00,
2013-02-01 23:56:00,29.1,14.9,26.05,SE,124,0.0,0.0,55,0.00,,,0.00,WUHU216WMR968SP,2013-02-02 07:56:00,